createdAt,value
2024-03-05T00:00:29.046Z,13.15
2024-03-05T00:02:55.716Z,14.95
2024-03-05T00:05:22.347Z,13.52
2024-03-05T00:07:49.063Z,13.95
2024-03-05T00:10:15.916Z,14.15
2024-03-05T00:12:43.089Z,14.18
2024-03-05T00:15:10.142Z,13.38
2024-03-05T00:17:38.116Z,13.65
2024-03-05T00:20:05.494Z,13.70
2024-03-05T00:22:32.152Z,13.90
2024-03-05T00:24:59.910Z,13.15
2024-03-05T00:27:27.227Z,14.05
2024-03-05T00:29:53.794Z,14.55
2024-03-05T00:32:20.339Z,13.50
2024-03-05T00:34:46.951Z,14.07
2024-03-05T00:37:13.533Z,14.38
2024-03-05T00:39:40.112Z,14.30
2024-03-05T00:42:06.813Z,14.38
2024-03-05T00:44:33.474Z,13.98
2024-03-05T00:47:00.110Z,13.73
2024-03-05T00:49:26.804Z,14.30
2024-03-05T00:51:54.043Z,13.63
2024-03-05T00:54:20.616Z,13.65
2024-03-05T00:56:48.118Z,13.98
2024-03-05T00:59:14.698Z,14.13
2024-03-05T01:01:41.341Z,13.82
2024-03-05T01:04:09.296Z,13.90
2024-03-05T01:06:36.209Z,14.55
2024-03-05T01:09:03.956Z,14.27
2024-03-05T01:11:31.039Z,14.50
2024-03-05T01:13:58.701Z,14.80
2024-03-05T01:16:27.449Z,14.90
2024-03-05T01:18:56.578Z,14.20
2024-03-05T01:21:23.298Z,13.95
2024-03-05T01:23:50.218Z,13.57
2024-03-05T01:26:16.830Z,14.27
2024-03-05T01:28:43.516Z,14.63
2024-03-05T01:31:10.245Z,13.93
2024-03-05T01:33:37.357Z,14.45
2024-03-05T01:36:04.615Z,14.73
2024-03-05T01:38:31.430Z,15.40
2024-03-05T01:40:58.166Z,15.68
2024-03-05T01:43:25.141Z,15.43
2024-03-05T01:45:52.237Z,14.30
2024-03-05T01:48:19.643Z,14.40
2024-03-05T01:50:46.450Z,15.05
2024-03-05T01:53:16.488Z,15.23
2024-03-05T01:55:46.344Z,15.07
2024-03-05T01:58:16.673Z,15.35
2024-03-05T02:00:43.488Z,15.02
2024-03-05T02:03:12.420Z,14.85
2024-03-05T02:05:44.429Z,15.15
2024-03-05T02:08:16.130Z,15.90
2024-03-05T02:10:48.421Z,14.82
2024-03-05T02:13:15.120Z,16.07
2024-03-05T02:15:41.853Z,16.38
2024-03-05T02:18:09.206Z,17.05
2024-03-05T02:20:36.086Z,17.75
2024-03-05T02:23:03.583Z,17.90
2024-03-05T02:25:32.528Z,17.25
2024-03-05T02:28:00.927Z,17.42
2024-03-05T02:30:27.652Z,16.40
2024-03-05T02:32:54.478Z,17.38
2024-03-05T02:35:22.589Z,17.58
2024-03-05T02:37:49.341Z,16.73
2024-03-05T02:40:16.755Z,17.65
2024-03-05T02:42:44.132Z,16.58
2024-03-05T02:45:12.270Z,18.10
2024-03-05T02:47:42.520Z,18.38
2024-03-05T02:50:12.652Z,17.30
2024-03-05T02:52:40.159Z,16.95
2024-03-05T02:55:13.863Z,18.85
2024-03-05T02:57:45.538Z,17.38
2024-03-05T03:00:21.927Z,17.60
2024-03-05T03:02:52.354Z,18.37
2024-03-05T03:05:22.721Z,17.77
2024-03-05T03:07:49.996Z,18.88
2024-03-05T03:10:16.810Z,19.05
2024-03-05T03:12:43.785Z,19.00
2024-03-05T03:15:10.631Z,18.55
2024-03-05T03:17:43.676Z,18.20
2024-03-05T03:20:10.969Z,17.90
2024-03-05T03:22:37.882Z,17.25
2024-03-05T03:25:05.627Z,17.85
2024-03-05T03:27:32.369Z,19.17
2024-03-05T03:30:01.853Z,17.40
2024-03-05T03:32:29.134Z,18.08
2024-03-05T03:34:56.032Z,18.67
2024-03-05T03:37:23.254Z,17.95
2024-03-05T03:39:49.885Z,18.20
2024-03-05T03:42:17.266Z,17.65
2024-03-05T03:44:43.930Z,17.38
2024-03-05T03:47:10.639Z,17.67
2024-03-05T03:49:37.478Z,17.60
2024-03-05T03:52:04.356Z,18.57
2024-03-05T03:54:31.109Z,17.92
2024-03-05T03:56:57.693Z,17.40
2024-03-05T03:59:24.317Z,18.67
2024-03-05T04:01:51.747Z,18.00
2024-03-05T04:04:18.380Z,17.67
2024-03-05T04:06:49.207Z,19.13
2024-03-05T04:09:16.048Z,18.05
2024-03-05T04:11:43.717Z,17.83
2024-03-05T04:14:11.113Z,17.95
2024-03-05T04:16:42.076Z,17.90
2024-03-05T04:19:09.752Z,17.92
2024-03-05T04:21:47.024Z,17.48
2024-03-05T04:24:16.756Z,18.38
2024-03-05T04:26:44.018Z,18.77
2024-03-05T04:29:17.614Z,18.17
2024-03-05T04:31:50.601Z,18.85
2024-03-05T04:34:21.368Z,19.27
2024-03-05T04:36:50.821Z,18.30
2024-03-05T04:39:17.415Z,18.23
2024-03-05T04:41:47.678Z,18.67
2024-03-05T04:44:14.919Z,17.52
2024-03-05T04:46:42.146Z,17.27
2024-03-05T04:49:08.950Z,16.55
2024-03-05T04:51:36.203Z,17.27
2024-03-05T04:54:03.189Z,17.58
2024-03-05T04:56:29.856Z,18.08
2024-03-05T04:58:56.547Z,18.88
2024-03-05T05:01:23.318Z,17.33
2024-03-05T05:03:50.004Z,18.38
2024-03-05T05:06:16.785Z,17.80
2024-03-05T05:08:43.870Z,16.90
2024-03-05T05:11:10.657Z,18.13
2024-03-05T05:13:37.438Z,18.25
2024-03-05T05:16:06.294Z,18.50
2024-03-05T05:18:33.049Z,17.33
2024-03-05T05:20:59.723Z,18.27
2024-03-05T05:23:26.369Z,17.45
2024-03-05T05:25:53.976Z,16.90
2024-03-05T05:28:20.846Z,16.20
2024-03-05T05:30:47.450Z,16.93
2024-03-05T05:33:14.122Z,17.27
2024-03-05T05:35:41.281Z,16.90
2024-03-05T05:38:11.050Z,18.00
2024-03-05T05:40:37.668Z,17.80
2024-03-05T05:43:05.228Z,17.27
2024-03-05T05:45:31.806Z,17.48
2024-03-05T05:47:59.312Z,17.10
2024-03-05T05:50:32.619Z,17.30
2024-03-05T05:53:00.356Z,16.27
2024-03-05T05:55:27.681Z,16.37
2024-03-05T05:57:55.509Z,15.77
2024-03-05T06:00:24.031Z,14.93
2024-03-05T06:02:52.702Z,15.48
2024-03-05T06:05:19.412Z,14.70
2024-03-05T06:07:46.619Z,15.37
2024-03-05T06:10:18.131Z,15.05
2024-03-05T06:12:46.454Z,15.18
2024-03-05T06:15:13.356Z,14.63
2024-03-05T06:17:41.334Z,14.80
2024-03-05T06:20:11.573Z,15.67
2024-03-05T06:22:43.227Z,15.55
2024-03-05T06:25:10.807Z,14.73
2024-03-05T06:27:37.624Z,15.02
2024-03-05T06:30:08.880Z,16.48
2024-03-05T06:32:39.040Z,15.82
2024-03-05T06:35:06.914Z,15.73
2024-03-05T06:37:33.881Z,15.57
2024-03-05T06:40:00.662Z,15.48
2024-03-05T06:42:31.494Z,15.52
2024-03-05T06:45:06.770Z,13.90
2024-03-05T06:47:40.573Z,15.45
2024-03-05T06:50:08.926Z,16.27
2024-03-05T06:52:54.746Z,13.43
2024-03-05T06:55:40.217Z,13.82
2024-03-05T06:58:08.299Z,14.07
2024-03-05T07:00:35.427Z,14.00
2024-03-05T07:03:02.077Z,14.50
2024-03-05T07:05:28.630Z,15.07
2024-03-05T07:07:55.563Z,14.40
2024-03-05T07:10:22.653Z,14.63
2024-03-05T07:12:52.073Z,14.90
2024-03-05T07:15:18.790Z,14.60
2024-03-05T07:17:45.456Z,14.80
2024-03-05T07:20:23.857Z,13.50
2024-03-05T07:22:52.401Z,14.73
2024-03-05T07:25:19.509Z,14.07
2024-03-05T07:27:48.095Z,14.13
2024-03-05T07:30:21.123Z,13.00
2024-03-05T07:32:49.395Z,13.98
2024-03-05T07:35:18.699Z,12.47
2024-03-05T07:37:47.738Z,14.27
2024-03-05T07:40:21.716Z,13.82
2024-03-05T07:42:54.530Z,13.93
2024-03-05T07:45:23.172Z,13.45
2024-03-05T07:47:51.178Z,13.53
2024-03-05T07:50:17.957Z,13.68
2024-03-05T07:52:47.513Z,13.35
2024-03-05T07:55:25.730Z,13.27
2024-03-05T07:57:57.657Z,13.23
2024-03-05T08:00:26.003Z,13.83
2024-03-05T08:02:56.010Z,13.13
2024-03-05T08:05:23.481Z,13.27
2024-03-05T08:07:54.605Z,13.63
2024-03-05T08:10:22.113Z,13.95
2024-03-05T08:12:50.479Z,13.50
2024-03-05T08:15:18.357Z,13.80
2024-03-05T08:17:48.834Z,15.00
2024-03-05T08:20:19.885Z,14.68
2024-03-05T08:22:47.924Z,14.68
2024-03-05T08:25:18.544Z,15.20
2024-03-05T08:28:08.768Z,14.48
2024-03-05T08:30:35.417Z,14.88
2024-03-05T08:33:04.762Z,14.50
2024-03-05T08:35:32.395Z,14.52
2024-03-05T08:38:00.669Z,14.77
2024-03-05T08:40:28.982Z,14.88
2024-03-05T08:42:56.531Z,16.02
2024-03-05T08:45:24.911Z,14.18
2024-03-05T08:47:53.932Z,14.90
2024-03-05T08:50:22.471Z,14.97
2024-03-05T08:52:49.804Z,15.65
2024-03-05T08:55:18.854Z,15.00
2024-03-05T08:57:46.562Z,14.35
2024-03-05T09:00:32.406Z,13.35
2024-03-05T09:03:08.938Z,15.50
2024-03-05T09:05:36.602Z,14.15
2024-03-05T09:08:03.702Z,15.38
2024-03-05T09:10:30.355Z,15.68
2024-03-05T09:12:57.102Z,16.45
2024-03-05T09:15:24.142Z,15.90
2024-03-05T09:17:51.039Z,15.73
2024-03-05T09:20:18.404Z,15.90
2024-03-05T09:22:47.147Z,15.68
2024-03-05T09:25:15.929Z,14.38
2024-03-05T09:27:43.702Z,15.80
2024-03-05T09:30:11.387Z,15.75
2024-03-05T09:32:38.340Z,16.33
2024-03-05T09:35:09.962Z,15.02
2024-03-05T09:37:37.981Z,16.38
2024-03-05T09:40:07.589Z,16.27
2024-03-05T09:42:37.979Z,14.18
2024-03-05T09:45:07.650Z,15.15
2024-03-05T09:47:38.467Z,15.02
2024-03-05T09:50:08.672Z,15.10
2024-03-05T09:52:35.851Z,14.90
2024-03-05T09:55:03.113Z,16.10
2024-03-05T09:57:36.192Z,14.23
2024-03-05T10:00:05.241Z,15.70
2024-03-05T10:02:39.951Z,16.33
2024-03-05T10:05:10.692Z,14.23
2024-03-05T10:07:37.809Z,17.40
2024-03-05T10:10:05.377Z,16.40
2024-03-05T10:12:31.949Z,15.68
2024-03-05T10:15:13.108Z,15.02
2024-03-05T10:17:46.903Z,14.43
2024-03-05T10:20:28.972Z,14.90
2024-03-05T10:22:58.877Z,14.85
2024-03-05T10:25:26.863Z,14.52
2024-03-05T10:27:53.898Z,13.98
2024-03-05T10:30:38.804Z,14.40
2024-03-05T10:33:08.611Z,14.10
2024-03-05T10:35:36.802Z,14.45
2024-03-05T10:38:09.988Z,14.35
2024-03-05T10:40:38.165Z,14.07
2024-03-05T10:43:07.234Z,15.20
2024-03-05T10:45:36.037Z,13.63
2024-03-05T10:48:03.111Z,14.63
2024-03-05T10:50:30.115Z,14.98
2024-03-05T10:52:57.723Z,14.13
2024-03-05T10:55:25.391Z,14.43
2024-03-05T10:58:11.348Z,13.82
2024-03-05T11:00:42.105Z,14.27
2024-03-05T11:03:10.545Z,14.40
2024-03-05T11:05:50.549Z,14.65
2024-03-05T11:08:28.996Z,17.10
2024-03-05T11:10:58.285Z,14.32
2024-03-05T11:13:27.571Z,15.82
2024-03-05T11:15:54.862Z,16.02
2024-03-05T11:18:32.616Z,14.13
2024-03-05T11:21:06.469Z,16.27
2024-03-05T11:23:36.252Z,16.55
2024-03-05T11:26:05.041Z,15.30
2024-03-05T11:28:36.954Z,14.13
2024-03-05T11:31:33.300Z,16.60
2024-03-05T11:34:03.420Z,15.17
2024-03-05T11:36:37.463Z,16.17
2024-03-05T11:39:06.646Z,15.73
2024-03-05T11:41:35.696Z,16.10
2024-03-05T11:44:06.347Z,16.08
2024-03-05T11:46:42.907Z,15.27
2024-03-05T11:49:13.015Z,15.05
2024-03-05T11:51:41.656Z,16.77
2024-03-05T11:54:09.817Z,15.93
2024-03-05T11:56:39.497Z,15.20
2024-03-05T11:59:06.316Z,15.80
2024-03-05T12:01:33.940Z,15.57
2024-03-05T12:04:04.699Z,15.05
2024-03-05T12:06:32.195Z,16.35
2024-03-05T12:09:11.158Z,15.98
2024-03-05T12:11:38.266Z,15.53
2024-03-05T12:14:09.519Z,16.27
2024-03-05T12:16:37.778Z,15.30
2024-03-05T12:19:07.972Z,15.38
2024-03-05T12:21:37.630Z,14.73
2024-03-05T12:24:05.934Z,15.50
2024-03-05T12:26:34.707Z,15.50
2024-03-05T12:29:03.069Z,14.43
2024-03-05T12:31:29.804Z,14.48
2024-03-05T12:33:56.630Z,14.13
2024-03-05T12:36:23.491Z,15.20
2024-03-05T12:38:50.651Z,13.38
2024-03-05T12:41:21.268Z,13.38
2024-03-05T12:43:54.855Z,16.85
2024-03-05T12:46:21.617Z,14.35
2024-03-05T12:48:49.248Z,16.60
2024-03-05T12:51:15.919Z,17.92
2024-03-05T12:53:42.549Z,15.75
2024-03-05T12:56:13.329Z,17.98
2024-03-05T12:58:41.579Z,17.95
2024-03-05T13:01:11.524Z,16.50
2024-03-05T13:03:38.693Z,15.48
2024-03-05T13:06:05.597Z,18.00
2024-03-05T13:08:32.519Z,16.83
2024-03-05T13:10:59.166Z,17.25
2024-03-05T13:13:25.946Z,16.57
2024-03-05T13:15:53.103Z,16.35
2024-03-05T13:18:19.828Z,16.00
2024-03-05T13:20:46.625Z,17.20
2024-03-05T13:23:13.216Z,15.75
2024-03-05T13:25:40.005Z,16.20
2024-03-05T13:28:06.795Z,15.65
2024-03-05T13:30:33.393Z,15.13
2024-03-05T13:33:03.777Z,14.32
2024-03-05T13:35:32.981Z,12.27
2024-03-05T13:38:00.995Z,14.73
2024-03-05T13:40:28.072Z,14.88
2024-03-05T13:42:55.204Z,16.08
2024-03-05T13:45:22.008Z,15.38
2024-03-05T13:47:49.225Z,15.60
2024-03-05T13:50:18.253Z,15.07
2024-03-05T13:52:48.686Z,15.18
2024-03-05T13:55:19.626Z,15.50
2024-03-05T13:57:48.173Z,14.15
2024-03-05T14:00:20.813Z,15.18
2024-03-05T14:02:48.041Z,14.60
2024-03-05T14:05:14.873Z,15.02
2024-03-05T14:07:41.649Z,16.58
2024-03-05T14:10:11.408Z,14.60
2024-03-05T14:12:41.499Z,14.52
2024-03-05T14:15:20.838Z,14.93
2024-03-05T14:17:47.768Z,14.82
2024-03-05T14:20:14.756Z,13.88
2024-03-05T14:22:43.961Z,13.93
2024-03-05T14:25:12.669Z,13.93
2024-03-05T14:27:40.459Z,14.30
2024-03-05T14:30:12.773Z,13.80
2024-03-05T14:32:39.409Z,13.27
2024-03-05T14:35:07.155Z,14.40
2024-03-05T14:37:33.917Z,13.35
2024-03-05T14:40:00.571Z,13.73
2024-03-05T14:42:27.180Z,13.48
2024-03-05T14:44:53.749Z,13.27
2024-03-05T14:47:20.701Z,14.05
2024-03-05T14:49:47.323Z,13.50
2024-03-05T14:52:13.906Z,13.63
2024-03-05T14:54:40.502Z,14.63
2024-03-05T14:57:07.140Z,13.52
2024-03-05T14:59:34.654Z,12.70
2024-03-05T15:02:01.376Z,13.40
2024-03-05T15:04:28.178Z,11.77
2024-03-05T15:06:57.754Z,11.85
2024-03-05T15:09:24.377Z,12.48
2024-03-05T15:11:51.117Z,12.90
2024-03-05T15:14:17.800Z,11.90
2024-03-05T15:16:44.397Z,12.00
2024-03-05T15:19:11.026Z,12.05
2024-03-05T15:21:38.945Z,12.05
2024-03-05T15:24:06.018Z,12.40
2024-03-05T15:26:33.534Z,11.93
2024-03-05T15:29:00.137Z,12.10
2024-03-05T15:31:26.955Z,11.45
2024-03-05T15:33:54.569Z,12.27
2024-03-05T15:36:21.175Z,13.40
2024-03-05T15:38:47.824Z,13.10
2024-03-05T15:41:16.430Z,12.27
2024-03-05T15:43:43.156Z,12.85
2024-03-05T15:46:09.764Z,11.52
2024-03-05T15:48:36.338Z,13.13
2024-03-05T15:51:03.654Z,11.93
2024-03-05T15:53:30.291Z,13.00
2024-03-05T15:56:02.852Z,12.50
2024-03-05T15:58:41.859Z,12.38
2024-03-05T16:01:12.965Z,13.85
2024-03-05T16:03:52.568Z,13.10
2024-03-05T16:06:29.614Z,13.10
2024-03-05T16:08:56.417Z,11.75
2024-03-05T16:11:25.858Z,12.00
2024-03-05T16:13:52.983Z,16.33
2024-03-05T16:16:21.116Z,14.10
2024-03-05T16:18:48.642Z,13.23
2024-03-05T16:21:16.984Z,12.82
2024-03-05T16:23:44.714Z,12.25
2024-03-05T16:26:11.449Z,13.55
2024-03-05T16:28:39.355Z,13.70
2024-03-05T16:31:06.225Z,19.70
2024-03-05T16:33:33.881Z,19.15
2024-03-05T16:36:00.654Z,16.52
2024-03-05T16:38:27.324Z,17.75
2024-03-05T16:40:54.131Z,23.83
2024-03-05T16:43:20.946Z,22.47
2024-03-05T16:45:48.021Z,62.20
2024-03-05T16:48:14.707Z,46.38
2024-03-05T16:50:42.128Z,24.92
2024-03-05T16:53:10.039Z,21.33
2024-03-05T16:55:37.340Z,20.73
2024-03-05T16:58:10.744Z,16.75
2024-03-05T17:00:46.607Z,16.55
2024-03-05T17:03:15.970Z,13.52
2024-03-05T17:05:47.770Z,14.00
2024-03-05T17:08:20.531Z,14.67
2024-03-05T17:10:52.321Z,14.32
2024-03-05T17:13:20.439Z,14.98
2024-03-05T17:15:54.549Z,14.93
2024-03-05T17:18:23.746Z,13.98
2024-03-05T17:20:51.524Z,14.83
2024-03-05T17:23:25.383Z,14.93
2024-03-05T17:25:53.411Z,16.38
2024-03-05T17:28:20.350Z,15.52
2024-03-05T17:30:47.424Z,15.65
2024-03-05T17:33:15.758Z,16.33
2024-03-05T17:35:43.425Z,16.33
2024-03-05T17:38:14.460Z,15.43
2024-03-05T17:40:41.793Z,14.80
2024-03-05T17:43:08.846Z,14.23
2024-03-05T17:45:35.656Z,15.17
2024-03-05T17:48:06.912Z,14.30
2024-03-05T17:50:35.753Z,14.35
2024-03-05T17:53:06.180Z,14.48
2024-03-05T17:55:33.550Z,14.25
2024-03-05T17:58:00.587Z,14.50
2024-03-05T18:00:27.146Z,14.52
2024-03-05T18:02:55.590Z,14.68
2024-03-05T18:05:27.707Z,14.82
2024-03-05T18:07:55.219Z,15.60
2024-03-05T18:10:25.865Z,15.50
2024-03-05T18:12:53.849Z,15.35
2024-03-05T18:15:21.703Z,15.13
2024-03-05T18:17:53.127Z,16.08
2024-03-05T18:20:23.673Z,17.25
2024-03-05T18:22:50.769Z,18.37
2024-03-05T18:25:18.179Z,20.05
2024-03-05T18:27:50.133Z,21.20
2024-03-05T18:30:19.981Z,19.75
2024-03-05T18:32:48.352Z,17.33
2024-03-05T18:35:17.742Z,16.37
2024-03-05T18:37:45.368Z,15.20
2024-03-05T18:40:14.620Z,14.75
2024-03-05T18:42:42.655Z,15.10
2024-03-05T18:45:12.857Z,15.30
2024-03-05T18:47:46.530Z,16.23
2024-03-05T18:50:18.686Z,17.95
2024-03-05T18:52:45.496Z,17.20
2024-03-05T18:55:13.787Z,16.67
2024-03-05T18:57:40.858Z,16.58
2024-03-05T19:00:16.322Z,15.57
2024-03-05T19:02:44.423Z,16.25
2024-03-05T19:05:14.419Z,16.33
2024-03-05T19:07:47.001Z,15.50
2024-03-05T19:10:13.978Z,14.50
2024-03-05T19:12:41.197Z,15.40
2024-03-05T19:15:08.543Z,14.50
2024-03-05T19:17:35.802Z,15.63
2024-03-05T19:20:02.929Z,15.48
2024-03-05T19:22:30.229Z,16.38
2024-03-05T19:24:59.717Z,16.58
2024-03-05T19:27:26.912Z,15.77
2024-03-05T19:29:55.370Z,15.32
2024-03-05T19:32:22.352Z,15.35
2024-03-05T19:34:49.382Z,15.68
2024-03-05T19:37:17.201Z,15.77
2024-03-05T19:39:43.816Z,15.35
2024-03-05T19:42:11.655Z,15.50
2024-03-05T19:44:40.220Z,16.42
2024-03-05T19:47:06.966Z,15.40
2024-03-05T19:49:33.619Z,16.02
2024-03-05T19:52:00.494Z,16.13
2024-03-05T19:54:28.980Z,15.25
2024-03-05T19:56:56.942Z,16.30
2024-03-05T19:59:23.827Z,16.40
2024-03-05T20:01:50.619Z,15.18
2024-03-05T20:04:17.758Z,15.48
2024-03-05T20:06:44.758Z,15.75
2024-03-05T20:09:14.451Z,16.40
2024-03-05T20:11:41.484Z,17.63
2024-03-05T20:14:09.068Z,17.85
2024-03-05T20:16:36.825Z,18.70
2024-03-05T20:19:03.551Z,17.70
2024-03-05T20:21:30.202Z,17.20
2024-03-05T20:23:57.532Z,17.35
2024-03-05T20:26:24.150Z,16.27
2024-03-05T20:28:53.661Z,15.82
2024-03-05T20:31:22.812Z,17.30
2024-03-05T20:33:49.880Z,17.25
2024-03-05T20:36:19.509Z,16.13
2024-03-05T20:38:46.621Z,17.63
2024-03-05T20:41:14.264Z,17.25
2024-03-05T20:43:41.391Z,17.08
2024-03-05T20:46:10.780Z,17.15
2024-03-05T20:48:38.067Z,16.60
2024-03-05T20:51:05.003Z,17.63
2024-03-05T20:53:31.617Z,16.17
2024-03-05T20:55:58.234Z,16.85
2024-03-05T20:58:24.864Z,15.10
2024-03-05T21:00:51.614Z,14.38
2024-03-05T21:03:22.683Z,15.70
2024-03-05T21:05:49.480Z,15.85
2024-03-05T21:08:16.238Z,14.82
2024-03-05T21:10:44.703Z,15.35
2024-03-05T21:13:11.468Z,16.55
2024-03-05T21:15:38.259Z,15.75
2024-03-05T21:18:09.682Z,15.88
2024-03-05T21:20:37.436Z,16.75
2024-03-05T21:23:05.323Z,15.95
2024-03-05T21:25:39.906Z,15.88
2024-03-05T21:28:12.398Z,16.95
2024-03-05T21:30:41.211Z,16.15
2024-03-05T21:33:08.344Z,15.13
2024-03-05T21:35:35.104Z,16.35
2024-03-05T21:38:01.718Z,16.88
2024-03-05T21:40:29.084Z,17.58
2024-03-05T21:42:55.769Z,16.92
2024-03-05T21:45:22.363Z,16.95
2024-03-05T21:47:50.017Z,17.35
2024-03-05T21:50:17.258Z,17.20
2024-03-05T21:52:47.220Z,17.73
2024-03-05T21:55:14.752Z,16.50
2024-03-05T21:57:41.522Z,17.50
2024-03-05T22:00:12.849Z,16.90
2024-03-05T22:02:40.369Z,17.50
2024-03-05T22:05:08.500Z,18.23
2024-03-05T22:07:36.258Z,17.38
2024-03-05T22:10:07.340Z,17.75
2024-03-05T22:12:35.124Z,16.73
2024-03-05T22:15:01.728Z,17.98
2024-03-05T22:17:28.331Z,17.45
2024-03-05T22:19:54.910Z,16.98
2024-03-05T22:22:23.414Z,16.25
2024-03-05T22:24:51.051Z,16.80
2024-03-05T22:27:17.837Z,17.17
2024-03-05T22:29:44.544Z,17.98
2024-03-05T22:32:11.342Z,16.85
2024-03-05T22:34:38.106Z,16.50
2024-03-05T22:37:04.823Z,18.48
2024-03-05T22:39:31.356Z,18.52
2024-03-05T22:41:57.935Z,16.80
2024-03-05T22:44:24.862Z,18.13
2024-03-05T22:46:51.512Z,16.52
2024-03-05T22:49:18.672Z,16.33
2024-03-05T22:51:45.389Z,17.85
2024-03-05T22:54:12.005Z,17.77
2024-03-05T22:56:38.652Z,18.27
2024-03-05T22:59:05.317Z,18.88
2024-03-05T23:01:32.106Z,18.52
2024-03-05T23:03:58.747Z,18.63
2024-03-05T23:06:26.593Z,17.85
2024-03-05T23:08:53.297Z,17.55
2024-03-05T23:11:20.008Z,17.85
2024-03-05T23:13:46.660Z,17.65
2024-03-05T23:16:13.276Z,16.40
2024-03-05T23:18:39.863Z,16.58
2024-03-05T23:21:08.764Z,16.20
2024-03-05T23:23:35.351Z,17.55
2024-03-05T23:26:02.156Z,17.80
2024-03-05T23:28:28.805Z,18.15
2024-03-05T23:30:55.682Z,18.42
2024-03-05T23:33:22.319Z,16.45
2024-03-05T23:35:48.911Z,16.38
2024-03-05T23:38:15.571Z,16.92
2024-03-05T23:40:42.275Z,15.43
2024-03-05T23:43:08.853Z,16.10
2024-03-05T23:45:35.468Z,16.85
2024-03-05T23:48:02.139Z,17.23
2024-03-05T23:50:28.893Z,17.05
2024-03-05T23:52:55.517Z,16.80
2024-03-05T23:55:23.023Z,15.88
2024-03-05T23:57:49.665Z,16.98
